Texline, Texas
Current Conditions -  °F | °C
As of 6:55 AM on Thursday 27 Nov 2014 (Local Time) from KCAO Reporting Station
Clear Clear  
Wind Chill: -5°   Ceiling: Unl
Heat Index:   Visibility: 10mi
Dew Point: -4°   Wind: 10mph
Humidity: 73%   Direction: 220°SW
Pressure: 30.33"   Gusts: NA
Location:  36.38°N, 103.02°W
Report Text: KCAO 271255Z AUTO 22009KT 10SM CLR 00/M04 A3033 RMK AO2 SLP284 T00001044
Loading
Personal Weather Stations






























Interactive Weather Map New forecast layout! Learn more

10-Day Weather Forecast

Advertisements
Track Severe Weather on mobile